Time;durP1;ratioP1;P1;durP2;ratioP2;P2;SDS_P1;SDS_P2;PMS_P1;PMS_P2;Temp;Humidity;BMP_temperature;BMP_pressure;BME280_temperature;BME280_humidity;BME280_pressure;Samples;Min_cycle;Max_cycle;Signal;HPM_P1;HPM_P2
2020/12/02 00:01:59;;;;;;;6.80;6.27;;;6.50;99.90;;;;;;5051547;28;20912;-59
2020/12/02 00:04:25;;;;;;;8.03;7.43;;;6.50;99.90;;;;;;5051531;28;20403;-58
2020/12/02 00:06:51;;;;;;;7.90;7.13;;;6.50;99.90;;;;;;5051405;28;20788;-59
2020/12/02 00:09:22;;;;;;;6.67;6.17;;;6.50;99.90;;;;;;5051594;28;20410;-58
2020/12/02 00:11:49;;;;;;;7.60;6.90;;;6.50;99.90;;;;;;5051568;28;20630;-59
2020/12/02 00:14:27;;;;;;;7.53;6.93;;;6.50;99.90;;;;;;5051497;28;20414;-59
2020/12/02 00:16:53;;;;;;;8.30;7.50;;;6.50;99.90;;;;;;5051436;28;20451;-58
2020/12/02 00:19:19;;;;;;;8.60;7.90;;;6.40;99.90;;;;;;5051460;28;20465;-59
2020/12/02 00:22:00;;;;;;;8.40;7.70;;;6.50;99.90;;;;;;5051307;28;20895;-56
2020/12/02 00:24:26;;;;;;;8.23;7.63;;;6.50;99.90;;;;;;5051528;28;20177;-59
2020/12/02 00:26:52;;;;;;;8.20;7.50;;;6.40;99.90;;;;;;5051162;28;20408;-52
2020/12/02 00:29:18;;;;;;;8.67;8.07;;;6.50;99.90;;;;;;5051574;28;20884;-55
2020/12/02 00:31:44;;;;;;;8.60;7.77;;;6.40;99.90;;;;;;5051334;28;20666;-58
2020/12/02 00:34:09;;;;;;;8.90;8.20;;;6.40;99.90;;;;;;5051538;28;20176;-54
2020/12/02 00:36:35;;;;;;;9.03;8.23;;;6.40;99.90;;;;;;5051104;28;20260;-51
2020/12/02 00:39:00;;;;;;;10.27;9.23;;;6.40;99.90;;;;;;5052549;28;20720;-50
2020/12/02 00:41:26;;;;;;;35.70;28.70;;;6.40;99.90;;;;;;5062413;28;20568;-55
2020/12/02 00:43:51;;;;;;;24.67;19.97;;;6.40;99.90;;;;;;5061652;28;20645;-58
2020/12/02 00:46:17;;;;;;;10.23;9.23;;;6.40;99.90;;;;;;5063873;28;20539;-56
2020/12/02 00:48:50;;;;;;;11.93;10.77;;;6.40;99.90;;;;;;5071186;28;20258;-53
2020/12/02 00:51:16;;;;;;;10.23;9.33;;;6.40;99.90;;;;;;5071124;28;20177;-54
2020/12/02 00:53:42;;;;;;;9.90;8.13;;;6.30;99.90;;;;;;5071318;28;20426;-57
2020/12/02 00:56:10;;;;;;;10.30;9.30;;;6.30;99.90;;;;;;5071194;28;20196;-57
2020/12/02 00:58:57;;;;;;;9.13;8.30;;;6.30;99.90;;;;;;5074096;28;20195;-55
2020/12/02 01:01:43;;;;;;;13.60;12.40;;;6.30;99.90;;;;;;5074889;28;20908;-57
2020/12/02 01:04:18;;;;;;;9.27;8.47;;;6.30;99.90;;;;;;5073633;28;20547;-55
2020/12/02 01:06:46;;;;;;;10.93;9.80;;;6.30;99.90;;;;;;5074584;28;20401;-53
2020/12/02 01:09:14;;;;;;;11.63;10.67;;;6.30;99.90;;;;;;5074959;28;20496;-56
2020/12/02 01:11:40;;;;;;;10.90;9.73;;;6.30;99.90;;;;;;5074775;28;20902;-53
2020/12/02 01:14:10;;;;;;;11.13;10.03;;;6.30;99.90;;;;;;5074638;28;20911;-56
2020/12/02 01:16:39;;;;;;;10.77;9.70;;;6.30;99.90;;;;;;5074551;28;20402;-59
2020/12/02 01:19:09;;;;;;;10.17;9.37;;;6.30;99.90;;;;;;5073311;28;20409;-56
2020/12/02 01:21:42;;;;;;;13.03;11.57;;;6.30;99.90;;;;;;5074678;28;20397;-54
2020/12/02 01:24:14;;;;;;;10.37;9.40;;;6.20;99.90;;;;;;5074475;28;20758;-56
2020/12/02 01:26:46;;;;;;;10.23;9.33;;;6.30;99.90;;;;;;5074297;28;20405;-55
2020/12/02 01:29:16;;;;;;;9.20;8.40;;;6.30;99.90;;;;;;5074446;28;20400;-53
2020/12/02 01:31:48;;;;;;;11.07;9.97;;;6.30;99.90;;;;;;5074582;28;20753;-57
2020/12/02 01:34:14;;;;;;;10.87;9.87;;;6.30;99.90;;;;;;5074295;28;20468;-56
2020/12/02 01:36:54;;;;;;;11.90;9.10;;;6.30;99.90;;;;;;5074180;28;20394;-58
2020/12/02 01:39:21;;;;;;;10.83;9.60;;;6.30;99.90;;;;;;5074176;28;20576;-54
2020/12/02 01:41:48;;;;;;;11.20;10.10;;;6.30;99.90;;;;;;5074287;28;20960;-56
2020/12/02 01:44:15;;;;;;;17.23;10.57;;;6.30;99.90;;;;;;5074102;28;20410;-53
2020/12/02 01:47:16;;;;;;;12.13;9.70;;;6.30;99.90;;;;;;5074041;28;20426;-53
2020/12/02 01:50:08;;;;;;;12.20;10.77;;;6.30;99.90;;;;;;5073456;28;20417;-56
2020/12/02 01:52:47;;;;;;;14.80;11.77;;;6.30;99.90;;;;;;5073788;28;20466;-55
2020/12/02 01:55:19;;;;;;;14.37;11.17;;;6.20;99.90;;;;;;5073929;28;20906;-56
2020/12/02 01:57:47;;;;;;;16.00;11.70;;;6.20;99.90;;;;;;5073716;28;20800;-56
2020/12/02 02:00:19;;;;;;;14.53;10.10;;;6.20;99.90;;;;;;5073841;28;20450;-54
2020/12/02 02:03:10;;;;;;;14.00;11.20;;;6.20;99.90;;;;;;5073943;28;20432;-54
2020/12/02 02:05:42;;;;;;;12.20;10.60;;;6.20;99.90;;;;;;5073698;28;20406;-56
2020/12/02 02:08:07;;;;;;;10.90;9.77;;;6.10;99.90;;;;;;5073494;28;20402;-56
2020/12/02 02:10:37;;;;;;;11.00;9.87;;;6.10;99.90;;;;;;5073002;28;20836;-55
2020/12/02 02:13:35;;;;;;;11.00;9.10;;;6.10;99.90;;;;;;5073923;28;20233;-55
2020/12/02 02:16:11;;;;;;;9.90;8.90;;;6.10;99.90;;;;;;5073574;28;20774;-56
2020/12/02 02:18:37;;;;;;;11.07;9.93;;;6.20;99.90;;;;;;5073340;28;20508;-54
2020/12/02 02:21:07;;;;;;;10.77;9.63;;;6.10;99.90;;;;;;5073402;28;20536;-58
2020/12/02 02:23:33;;;;;;;10.97;9.93;;;6.20;99.90;;;;;;5073523;28;20188;-55
2020/12/02 02:26:01;;;;;;;12.20;11.20;;;6.20;99.90;;;;;;5073434;28;20484;-57
2020/12/02 02:28:30;;;;;;;11.90;9.57;;;6.10;99.90;;;;;;5073180;28;20188;-54
2020/12/02 02:30:56;;;;;;;12.07;11.03;;;6.20;99.90;;;;;;5073429;28;20405;-56
2020/12/02 02:33:23;;;;;;;11.70;10.50;;;6.20;99.90;;;;;;5073083;28;20463;-57
2020/12/02 02:35:48;;;;;;;11.13;10.00;;;6.20;99.90;;;;;;5073396;28;20405;-55
2020/12/02 02:38:19;;;;;;;7.90;7.17;;;6.20;99.90;;;;;;5072846;28;20460;-53
2020/12/02 02:40:45;;;;;;;9.63;8.73;;;6.20;99.90;;;;;;5073187;28;20187;-56
2020/12/02 02:43:11;;;;;;;7.40;6.80;;;6.10;99.90;;;;;;5072955;28;20422;-57
2020/12/02 02:45:36;;;;;;;7.27;6.67;;;6.10;99.90;;;;;;5072998;28;20412;-54
2020/12/02 02:48:06;;;;;;;7.57;6.97;;;6.10;99.90;;;;;;5072662;28;20172;-56
2020/12/02 02:50:34;;;;;;;6.83;6.33;;;6.00;99.90;;;;;;5073084;28;20206;-57
2020/12/02 02:53:00;;;;;;;7.53;6.67;;;6.00;99.90;;;;;;5072727;28;20445;-56
2020/12/02 02:55:27;;;;;;;8.93;8.03;;;6.00;99.90;;;;;;5072870;28;20544;-54
2020/12/02 02:57:54;;;;;;;8.00;7.20;;;5.90;99.90;;;;;;5072472;28;20402;-56
2020/12/02 03:00:29;;;;;;;7.07;6.47;;;5.90;99.90;;;;;;5073253;28;20442;-52
2020/12/02 03:02:56;;;;;;;6.53;6.03;;;5.90;99.90;;;;;;5072766;28;20421;-53
2020/12/02 03:05:22;;;;;;;7.40;6.70;;;5.90;99.90;;;;;;5072487;28;20393;-56
2020/12/02 03:07:56;;;;;;;6.90;6.40;;;5.90;99.90;;;;;;5072386;28;20413;-52
2020/12/02 03:10:25;;;;;;;8.40;7.70;;;5.90;99.90;;;;;;5072554;28;20206;-53
2020/12/02 03:12:51;;;;;;;8.13;7.40;;;5.90;99.90;;;;;;5072418;28;20430;-53
2020/12/02 03:15:19;;;;;;;6.83;6.33;;;5.80;99.90;;;;;;5072318;28;20402;-55
2020/12/02 03:17:45;;;;;;;7.33;6.60;;;5.80;99.90;;;;;;5072262;28;20163;-54
2020/12/02 03:20:17;;;;;;;7.63;6.93;;;5.80;99.90;;;;;;5071176;28;20477;-58
2020/12/02 03:22:43;;;;;;;7.07;6.57;;;5.80;99.90;;;;;;5070885;28;20414;-55
2020/12/02 03:25:15;;;;;;;7.57;7.00;;;5.80;99.90;;;;;;5071942;28;20398;-58
2020/12/02 03:27:41;;;;;;;7.77;7.07;;;5.80;99.90;;;;;;5072093;28;20393;-51
2020/12/02 03:30:07;;;;;;;6.10;5.80;;;5.80;99.90;;;;;;5072117;28;20910;-57
2020/12/02 03:32:32;;;;;;;6.60;6.10;;;5.80;99.90;;;;;;5072194;28;20425;-52
2020/12/02 03:34:58;;;;;;;6.40;5.90;;;5.80;99.90;;;;;;5071994;28;20182;-58
2020/12/02 03:37:23;;;;;;;6.17;5.77;;;5.70;99.90;;;;;;5071847;28;20160;-52
2020/12/02 03:39:49;;;;;;;6.50;6.10;;;5.70;99.90;;;;;;5072027;28;20561;-54
2020/12/02 03:42:15;;;;;;;6.53;6.07;;;5.70;99.90;;;;;;5071922;28;20278;-53
2020/12/02 03:44:41;;;;;;;6.40;6.00;;;5.60;99.90;;;;;;5072052;28;20170;-56
2020/12/02 03:47:08;;;;;;;7.20;6.70;;;5.70;99.90;;;;;;5071564;28;20405;-54
2020/12/02 03:49:34;;;;;;;5.83;5.43;;;5.70;99.90;;;;;;5072137;28;20173;-54
2020/12/02 03:51:59;;;;;;;6.17;5.60;;;5.70;99.90;;;;;;5071669;28;20421;-55
2020/12/02 03:54:25;;;;;;;6.73;6.30;;;5.60;99.90;;;;;;5071797;28;20223;-58
2020/12/02 03:56:50;;;;;;;6.07;5.57;;;5.60;99.90;;;;;;5071507;28;20229;-54
2020/12/02 03:59:16;;;;;;;6.57;6.07;;;5.60;99.90;;;;;;5071820;28;20190;-51
2020/12/02 04:01:41;;;;;;;4.93;4.63;;;5.60;99.90;;;;;;5071675;28;20171;-55
2020/12/02 04:04:07;;;;;;;4.97;4.70;;;5.60;99.90;;;;;;5071813;28;20168;-54
2020/12/02 04:06:32;;;;;;;5.17;4.90;;;5.60;99.90;;;;;;5071552;28;20174;-53
2020/12/02 04:08:58;;;;;;;5.10;4.80;;;5.60;99.90;;;;;;5071594;28;20221;-54
2020/12/02 04:11:24;;;;;;;3.83;3.63;;;5.60;99.90;;;;;;5071956;28;20222;-52
2020/12/02 04:13:49;;;;;;;4.77;4.47;;;5.60;99.90;;;;;;5071459;28;20229;-54
2020/12/02 04:16:15;;;;;;;5.67;5.30;;;5.50;99.90;;;;;;5071812;28;20209;-56
2020/12/02 04:18:41;;;;;;;4.33;4.13;;;5.50;99.90;;;;;;5071329;28;20171;-53
2020/12/02 04:21:06;;;;;;;4.50;4.30;;;5.60;99.90;;;;;;5071645;28;20569;-56
2020/12/02 04:23:32;;;;;;;4.33;4.13;;;5.60;99.90;;;;;;5071296;28;20245;-56
2020/12/02 04:25:57;;;;;;;6.20;5.87;;;5.50;99.90;;;;;;5071777;28;20179;-54
2020/12/02 04:28:23;;;;;;;4.17;3.93;;;5.50;99.90;;;;;;5071257;28;20201;-51
2020/12/02 04:30:49;;;;;;;4.53;4.33;;;5.50;99.90;;;;;;5071636;28;20183;-56
2020/12/02 04:33:16;;;;;;;4.63;4.27;;;5.50;99.90;;;;;;5074207;28;20191;-56
2020/12/02 04:35:41;;;;;;;4.03;3.73;;;5.50;99.90;;;;;;5075500;28;20199;-52
2020/12/02 04:38:08;;;;;;;3.73;3.53;;;5.50;99.90;;;;;;5075315;28;20508;-52
2020/12/02 04:40:42;;;;;;;4.20;3.80;;;5.50;99.90;;;;;;5075230;28;20448;-56
2020/12/02 04:43:32;;;;;;;4.10;3.80;;;5.50;99.90;;;;;;5075504;28;20456;-54
2020/12/02 04:45:59;;;;;;;3.90;3.70;;;5.50;99.90;;;;;;5075343;28;20405;-55
2020/12/02 04:48:30;;;;;;;4.43;4.13;;;5.60;99.90;;;;;;5073850;28;20424;-52
2020/12/02 04:51:14;;;;;;;3.90;3.60;;;5.50;99.90;;;;;;5075075;28;20983;-56
2020/12/02 04:53:42;;;;;;;4.60;4.30;;;5.50;99.90;;;;;;5075118;28;20459;-53
2020/12/02 04:56:08;;;;;;;4.77;4.47;;;5.50;99.90;;;;;;5075136;28;20443;-54
2020/12/02 04:58:36;;;;;;;4.40;4.13;;;5.40;99.90;;;;;;5074797;28;20429;-53
2020/12/02 05:01:33;;;;;;;5.30;5.00;;;5.40;99.90;;;;;;5074874;28;20949;-52
2020/12/02 05:04:02;;;;;;;4.00;3.80;;;5.40;99.90;;;;;;5075034;28;20401;-57
2020/12/02 05:06:35;;;;;;;4.00;3.60;;;5.40;99.90;;;;;;5074739;28;20408;-57
2020/12/02 05:09:18;;;;;;;2.80;2.70;;;5.40;99.90;;;;;;5075028;28;20389;-52
2020/12/02 05:12:00;;;;;;;2.43;2.33;;;5.40;99.90;;;;;;5074614;28;20405;-55
2020/12/02 05:14:41;;;;;;;2.70;2.60;;;5.40;99.90;;;;;;5074852;28;20394;-56
2020/12/02 05:17:21;;;;;;;2.80;2.70;;;5.30;99.90;;;;;;5074455;28;20417;-54
2020/12/02 05:20:07;;;;;;;2.87;2.77;;;5.30;99.90;;;;;;5074672;28;20444;-55
2020/12/02 05:22:35;;;;;;;2.60;2.50;;;5.40;99.90;;;;;;5073247;28;20438;-55
2020/12/02 05:25:01;;;;;;;2.70;2.60;;;5.30;99.90;;;;;;5074667;28;20405;-54
2020/12/02 05:27:32;;;;;;;2.90;2.80;;;5.30;99.90;;;;;;5074185;28;20933;-58
2020/12/02 05:30:18;;;;;;;2.60;2.50;;;5.20;99.90;;;;;;5074654;28;20761;-56
2020/12/02 05:33:02;;;;;;;3.20;3.10;;;5.20;99.90;;;;;;5073660;28;20452;-55
2020/12/02 05:35:30;;;;;;;2.93;2.80;;;5.30;99.90;;;;;;5074437;28;20409;-56
2020/12/02 05:37:56;;;;;;;2.57;2.47;;;5.30;99.90;;;;;;5074017;28;20448;-54
2020/12/02 05:40:22;;;;;;;3.17;3.07;;;5.20;99.90;;;;;;5074379;28;20484;-54
2020/12/02 05:42:59;;;;;;;2.53;2.40;;;5.30;99.90;;;;;;5074123;28;20208;-51
2020/12/02 05:45:35;;;;;;;2.83;2.63;;;5.20;99.90;;;;;;5073435;28;20403;-54
2020/12/02 05:48:04;;;;;;;2.50;2.40;;;5.30;99.90;;;;;;5073914;28;20416;-55
2020/12/02 05:50:30;;;;;;;2.00;2.00;;;5.30;99.90;;;;;;5074199;28;20410;-58
2020/12/02 05:53:29;;;;;;;2.73;2.63;;;5.30;99.90;;;;;;5073930;28;20422;-59
2020/12/02 05:55:55;;;;;;;2.10;2.10;;;5.30;99.90;;;;;;5074094;28;20656;-56
2020/12/02 05:58:28;;;;;;;2.30;2.23;;;5.30;99.90;;;;;;5073592;28;20429;-54
2020/12/02 06:00:54;;;;;;;2.10;2.10;;;5.20;99.90;;;;;;5074045;28;20226;-54
2020/12/02 06:03:23;;;;;;;2.67;2.57;;;5.20;99.90;;;;;;5073858;28;20534;-58
2020/12/02 06:05:48;;;;;;;2.57;2.47;;;5.20;99.90;;;;;;5073749;28;20545;-53
2020/12/02 06:08:39;;;;;;;2.30;2.20;;;5.20;99.90;;;;;;5073724;28;20408;-58
2020/12/02 06:11:16;;;;;;;2.20;2.10;;;5.20;99.90;;;;;;5073861;28;20710;-57
2020/12/02 06:13:54;;;;;;;2.40;2.30;;;5.30;99.90;;;;;;5073692;28;20448;-57
2020/12/02 06:16:32;;;;;;;1.80;1.80;;;5.30;99.90;;;;;;5073639;28;20412;-55
2020/12/02 06:19:12;;;;;;;2.80;2.60;;;5.30;99.90;;;;;;5073684;28;20414;-56
2020/12/02 06:21:39;;;;;;;2.30;2.20;;;5.20;99.90;;;;;;5073460;28;20973;-56
2020/12/02 06:24:06;;;;;;;2.03;2.00;;;5.20;99.90;;;;;;5073618;28;20401;-56
2020/12/02 06:26:40;;;;;;;2.77;2.67;;;5.20;99.90;;;;;;5073081;28;20910;-56
2020/12/02 06:29:20;;;;;;;2.83;2.73;;;5.20;99.90;;;;;;5073571;28;20924;-55
2020/12/02 06:31:55;;;;;;;2.30;2.20;;;5.10;99.90;;;;;;5073291;28;20404;-55
2020/12/02 06:34:31;;;;;;;2.60;2.50;;;5.20;99.90;;;;;;5073333;28;20397;-58
2020/12/02 06:37:09;;;;;;;2.30;2.20;;;5.10;99.90;;;;;;5071636;28;20502;-59
2020/12/02 06:39:38;;;;;;;2.13;2.07;;;5.10;99.90;;;;;;5071323;28;20446;-58
2020/12/02 06:42:42;;;;;;;1.83;1.73;;;5.20;99.90;;;;;;5073028;28;20500;-51
2020/12/02 06:45:16;;;;;;;2.20;2.10;;;5.10;99.90;;;;;;5072909;28;20421;-51
2020/12/02 06:47:50;;;;;;;1.77;1.67;;;5.20;99.90;;;;;;5072702;28;20772;-52
2020/12/02 06:50:22;;;;;;;2.40;2.30;;;5.10;99.90;;;;;;5073101;28;20405;-50
2020/12/02 06:52:47;;;;;;;2.00;2.00;;;5.10;99.90;;;;;;5072833;28;20426;-54
2020/12/02 06:55:23;;;;;;;2.50;2.40;;;5.10;99.90;;;;;;5072884;28;20500;-53
2020/12/02 06:58:04;;;;;;;2.60;2.50;;;5.10;99.90;;;;;;5072268;28;20171;-55
2020/12/02 07:00:40;;;;;;;3.17;2.30;;;5.10;99.90;;;;;;5072902;28;20460;-51
2020/12/02 07:03:24;;;;;;;2.67;2.50;;;5.20;99.90;;;;;;5072487;28;20432;-51
2020/12/02 07:06:17;;;;;;;3.40;3.20;;;5.20;99.90;;;;;;5072693;28;20484;-50
2020/12/02 07:08:45;;;;;;;5.03;4.70;;;5.20;99.90;;;;;;5071623;28;20413;-51
2020/12/02 07:11:20;;;;;;;4.37;4.07;;;5.20;99.90;;;;;;5072564;28;20504;-49
2020/12/02 07:13:48;;;;;;;4.47;4.20;;;5.20;99.90;;;;;;5072307;28;20428;-51
2020/12/02 07:16:26;;;;;;;6.20;4.93;;;5.20;99.90;;;;;;5072556;28;20413;-55
2020/12/02 07:19:05;;;;;;;5.73;5.20;;;5.20;99.90;;;;;;5072043;28;20409;-54
2020/12/02 07:21:30;;;;;;;6.53;5.93;;;5.20;99.90;;;;;;5072373;28;20530;-52
2020/12/02 07:23:58;;;;;;;6.13;5.70;;;5.20;99.90;;;;;;5072153;28;20433;-50
2020/12/02 07:26:25;;;;;;;5.87;5.30;;;5.20;99.90;;;;;;5072403;28;20171;-56
2020/12/02 07:29:02;;;;;;;5.27;4.80;;;5.20;99.90;;;;;;5071935;28;20413;-55
2020/12/02 07:31:30;;;;;;;7.30;6.60;;;5.20;99.90;;;;;;5072287;28;20405;-50
2020/12/02 07:34:17;;;;;;;7.50;6.70;;;5.20;99.90;;;;;;5071904;28;20505;-48
2020/12/02 07:36:43;;;;;;;5.53;5.10;;;5.30;99.90;;;;;;5071974;28;20417;-50
2020/12/02 07:39:12;;;;;;;5.83;5.07;;;5.20;99.90;;;;;;5072038;28;20826;-52
2020/12/02 07:42:08;;;;;;;5.00;4.30;;;5.20;99.90;;;;;;5071910;28;20992;-52
2020/12/02 07:44:40;;;;;;;5.20;4.80;;;5.30;99.90;;;;;;5071335;28;20421;-52
2020/12/02 07:47:10;;;;;;;5.27;4.87;;;5.20;99.90;;;;;;5071823;28;20488;-52
2020/12/02 07:49:39;;;;;;;4.80;4.37;;;5.20;99.90;;;;;;5071967;28;20429;-50
2020/12/02 07:52:27;;;;;;;4.40;4.10;;;5.20;99.90;;;;;;5071820;28;20863;-54
2020/12/02 07:54:54;;;;;;;5.23;4.93;;;5.20;99.90;;;;;;5071944;28;20982;-54
2020/12/02 07:57:23;;;;;;;6.17;5.57;;;5.20;99.90;;;;;;5071685;28;20402;-50
2020/12/02 08:00:12;;;;;;;5.47;4.97;;;5.30;99.90;;;;;;5071828;28;20461;-54
2020/12/02 08:02:40;;;;;;;5.70;5.20;;;5.30;99.90;;;;;;5071803;28;20760;-52
2020/12/02 08:05:25;;;;;;;6.10;5.27;;;5.30;99.90;;;;;;5071887;28;20404;-51
2020/12/02 08:08:00;;;;;;;7.00;6.30;;;5.30;99.90;;;;;;5070994;28;20424;-53
2020/12/02 08:10:33;;;;;;;6.50;5.93;;;5.30;99.90;;;;;;5071896;28;20405;-52
2020/12/02 08:13:03;;;;;;;7.50;6.00;;;5.20;99.90;;;;;;5071555;28;20425;-53
2020/12/02 08:15:29;;;;;;;9.93;7.50;;;5.30;99.90;;;;;;5071742;28;20437;-53
2020/12/02 08:18:17;;;;;;;10.37;9.33;;;5.40;99.90;;;;;;5071348;28;20436;-52
2020/12/02 08:20:44;;;;;;;12.63;10.33;;;5.40;99.90;;;;;;5071757;28;20472;-57
2020/12/02 08:23:33;;;;;;;9.30;7.90;;;5.30;99.90;;;;;;5071480;28;20425;-53
2020/12/02 08:26:16;;;;;;;7.93;7.17;;;5.40;99.90;;;;;;5071777;28;20398;-51
2020/12/02 08:28:42;;;;;;;8.10;7.20;;;5.40;99.90;;;;;;5071299;28;20413;-55
2020/12/02 08:31:28;;;;;;;8.67;7.77;;;5.40;99.90;;;;;;5071658;28;20748;-53
2020/12/02 08:34:12;;;;;;;8.33;7.47;;;5.40;99.90;;;;;;5071272;28;20417;-55
2020/12/02 08:36:39;;;;;;;10.13;8.10;;;5.40;99.90;;;;;;5071374;28;20420;-54
2020/12/02 08:39:06;;;;;;;6.90;6.20;;;5.40;99.90;;;;;;5071331;28;20406;-51
2020/12/02 08:41:48;;;;;;;9.27;8.47;;;5.40;99.90;;;;;;5071484;28;20471;-57
2020/12/02 08:44:16;;;;;;;8.30;7.50;;;5.50;99.90;;;;;;5071247;28;20402;-56
2020/12/02 08:46:59;;;;;;;10.43;9.10;;;5.50;99.90;;;;;;5071144;28;20412;-50
2020/12/02 08:49:30;;;;;;;10.53;8.47;;;5.50;99.90;;;;;;5071239;28;21005;-50
2020/12/02 08:51:56;;;;;;;10.37;6.90;;;5.50;99.90;;;;;;5071447;28;20449;-54
2020/12/02 08:54:24;;;;;;;8.93;8.03;;;5.60;99.90;;;;;;5071100;28;20445;-50
2020/12/02 08:56:51;;;;;;;8.87;8.07;;;5.50;99.90;;;;;;5071123;28;20168;-49
2020/12/02 08:59:16;;;;;;;7.37;6.67;;;5.50;99.90;;;;;;5071669;28;20425;-54
2020/12/02 09:01:42;;;;;;;7.50;6.40;;;5.60;99.90;;;;;;5071535;28;20464;-57
2020/12/02 09:04:08;;;;;;;9.30;8.43;;;5.60;99.90;;;;;;5071192;28;20244;-58
2020/12/02 09:06:34;;;;;;;8.80;7.80;;;5.70;99.90;;;;;;5071039;28;20170;-57
2020/12/02 09:09:00;;;;;;;10.70;8.50;;;5.70;99.90;;;;;;5071600;28;20401;-57
2020/12/02 09:11:37;;;;;;;8.43;7.63;;;5.70;99.90;;;;;;5071127;28;20492;-57
2020/12/02 09:14:04;;;;;;;6.13;5.63;;;5.70;99.90;;;;;;5071141;28;20417;-58
2020/12/02 09:16:33;;;;;;;8.40;7.70;;;5.70;99.90;;;;;;5070843;28;20459;-55
2020/12/02 09:19:00;;;;;;;7.10;6.60;;;5.70;99.90;;;;;;5071797;28;20417;-57
2020/12/02 09:21:27;;;;;;;10.83;8.13;;;5.80;99.90;;;;;;5074555;28;20472;-58
2020/12/02 09:23:54;;;;;;;5.93;5.47;;;5.80;99.90;;;;;;5074538;28;20425;-57
2020/12/02 09:26:22;;;;;;;6.77;6.13;;;5.70;99.90;;;;;;5074550;28;20406;-59
2020/12/02 09:28:51;;;;;;;5.87;5.40;;;5.70;99.90;;;;;;5074400;28;20447;-58
2020/12/02 09:31:19;;;;;;;5.33;4.93;;;5.70;99.90;;;;;;5074379;28;20578;-58
2020/12/02 09:33:46;;;;;;;5.97;5.53;;;5.80;99.90;;;;;;5074439;28;20429;-58
2020/12/02 09:36:12;;;;;;;7.10;6.40;;;5.70;99.90;;;;;;5074506;28;20417;-58
2020/12/02 09:38:39;;;;;;;5.90;5.40;;;5.80;99.90;;;;;;5074038;28;20779;-56
2020/12/02 09:41:45;;;;;;;6.93;6.43;;;5.80;99.90;;;;;;5074890;28;20464;-54
2020/12/02 09:44:32;;;;;;;7.10;6.50;;;5.80;99.90;;;;;;5074990;28;20416;-58
2020/12/02 09:47:03;;;;;;;8.83;7.07;;;5.90;99.90;;;;;;5077026;28;20413;-59
2020/12/02 09:49:31;;;;;;;5.57;5.07;;;5.90;99.90;;;;;;5077538;28;20402;-60
2020/12/02 09:52:08;;;;;;;5.83;5.37;;;5.90;99.90;;;;;;5077442;28;20433;-60
2020/12/02 09:54:41;;;;;;;6.33;5.83;;;5.90;99.90;;;;;;5076983;28;20485;-59
2020/12/02 09:57:24;;;;;;;5.30;4.90;;;5.90;99.90;;;;;;5077681;28;20409;-60
2020/12/02 09:59:53;;;;;;;17.30;10.13;;;6.00;99.90;;;;;;5077685;28;20456;-60
2020/12/02 10:02:24;;;;;;;5.93;5.43;;;6.00;99.90;;;;;;5074682;28;20425;-56
2020/12/02 10:05:09;;;;;;;12.73;11.40;;;6.00;99.90;;;;;;5074073;28;20397;-57
2020/12/02 10:08:01;;;;;;;12.27;10.93;;;6.00;99.90;;;;;;5074314;28;20398;-57
2020/12/02 10:10:40;;;;;;;7.40;6.70;;;6.00;99.90;;;;;;5074002;28;20402;-57
2020/12/02 10:13:28;;;;;;;5.80;5.33;;;6.00;99.90;;;;;;5074135;28;20479;-58
2020/12/02 10:16:36;;;;;;;6.07;5.50;;;6.00;99.90;;;;;;5073665;28;20397;-55
2020/12/02 10:19:23;;;;;;;8.10;7.40;;;6.10;99.90;;;;;;5074013;28;20394;-57
2020/12/02 10:22:16;;;;;;;8.13;7.37;;;6.00;99.90;;;;;;5073352;28;20465;-57
2020/12/02 10:25:02;;;;;;;6.57;5.97;;;6.10;99.90;;;;;;5074238;28;20778;-58
2020/12/02 10:27:39;;;;;;;5.83;5.40;;;6.10;99.90;;;;;;5073237;28;20402;-58
2020/12/02 10:30:20;;;;;;;5.57;5.17;;;6.10;99.90;;;;;;5073230;28;20402;-58
2020/12/02 10:33:07;;;;;;;5.93;5.33;;;6.10;99.90;;;;;;5073240;28;20949;-57
2020/12/02 10:35:38;;;;;;;5.77;5.30;;;6.10;99.90;;;;;;5073415;28;20401;-57
2020/12/02 10:38:13;;;;;;;5.73;5.30;;;6.00;99.90;;;;;;5072942;28;20744;-58
2020/12/02 10:40:42;;;;;;;5.70;5.30;;;6.10;99.90;;;;;;5073146;28;20452;-57
2020/12/02 10:43:13;;;;;;;4.67;4.30;;;6.10;99.90;;;;;;5073002;28;20520;-58
2020/12/02 10:45:39;;;;;;;5.03;4.73;;;6.10;99.90;;;;;;5073158;28;20484;-58
2020/12/02 10:48:27;;;;;;;6.53;4.60;;;6.00;99.90;;;;;;5072755;28;20544;-58
2020/12/02 10:50:53;;;;;;;4.97;4.60;;;6.10;99.90;;;;;;5073187;28;20172;-58
2020/12/02 10:53:24;;;;;;;5.73;5.23;;;6.10;99.90;;;;;;5072822;28;20425;-58
2020/12/02 10:55:50;;;;;;;5.33;4.83;;;6.10;99.90;;;;;;5073177;28;20229;-55
2020/12/02 10:58:18;;;;;;;5.10;4.80;;;6.10;99.90;;;;;;5072387;28;20421;-57
2020/12/02 11:00:48;;;;;;;6.30;5.80;;;6.10;99.90;;;;;;5072724;28;20456;-54
2020/12/02 11:03:31;;;;;;;6.00;5.60;;;6.10;99.90;;;;;;5073004;28;20425;-58
2020/12/02 11:06:32;;;;;;;4.97;4.53;;;6.10;99.90;;;;;;5073914;28;20385;-57
2020/12/02 11:09:13;;;;;;;5.23;4.83;;;6.10;99.90;;;;;;5072729;28;20406;-58
2020/12/02 11:11:59;;;;;;;5.73;5.27;;;6.10;99.90;;;;;;5072645;28;20393;-58
2020/12/02 11:14:30;;;;;;;6.47;5.90;;;6.10;99.90;;;;;;5072440;28;20913;-58
2020/12/02 11:17:08;;;;;;;5.00;4.30;;;6.10;99.90;;;;;;5072346;28;20493;-58
2020/12/02 11:19:51;;;;;;;5.17;4.77;;;6.20;99.90;;;;;;5072342;28;20446;-57
2020/12/02 11:22:25;;;;;;;5.50;5.00;;;6.10;99.90;;;;;;5072344;28;20421;-56
2020/12/02 11:25:12;;;;;;;7.20;5.37;;;6.00;99.90;;;;;;5072278;28;20397;-58
2020/12/02 11:27:38;;;;;;;5.07;4.67;;;6.10;99.90;;;;;;5072140;28;20401;-58
2020/12/02 11:30:11;;;;;;;4.90;4.60;;;6.10;99.90;;;;;;5072201;28;20809;-57
2020/12/02 11:33:00;;;;;;;5.17;4.77;;;6.20;99.90;;;;;;5072309;28;20424;-58
2020/12/02 11:36:01;;;;;;;5.87;5.37;;;6.20;99.90;;;;;;5070768;28;20413;-57
2020/12/02 11:39:11;;;;;;;5.67;5.27;;;6.30;99.90;;;;;;5070913;28;20410;-57
2020/12/02 11:41:46;;;;;;;5.77;5.37;;;6.40;99.90;;;;;;5071171;28;20449;-57
2020/12/02 11:44:49;;;;;;;5.80;5.17;;;6.40;99.90;;;;;;5072108;28;20397;-58
2020/12/02 11:47:48;;;;;;;5.00;4.60;;;6.40;99.90;;;;;;5071789;28;20398;-58
2020/12/02 11:50:23;;;;;;;4.20;4.00;;;6.50;99.90;;;;;;5072243;28;20910;-58
2020/12/02 11:53:13;;;;;;;4.33;4.03;;;6.50;99.90;;;;;;5072083;28;20440;-59
2020/12/02 11:55:38;;;;;;;3.57;3.20;;;6.50;99.90;;;;;;5071818;28;20431;-58
2020/12/02 11:58:09;;;;;;;3.40;3.20;;;6.40;99.90;;;;;;5071587;28;20465;-60
2020/12/02 12:00:34;;;;;;;4.57;4.27;;;6.40;99.90;;;;;;5072112;28;20191;-57
2020/12/02 12:03:12;;;;;;;3.63;3.43;;;6.30;99.90;;;;;;5071841;28;20469;-57
2020/12/02 12:06:03;;;;;;;4.60;4.20;;;6.40;99.90;;;;;;5071898;28;20913;-57
2020/12/02 12:08:39;;;;;;;4.30;3.83;;;6.40;99.90;;;;;;5071031;28;20449;-57
2020/12/02 12:11:28;;;;;;;6.20;5.00;;;6.40;99.90;;;;;;5071934;28;20504;-57
2020/12/02 12:14:33;;;;;;;5.63;5.13;;;6.30;99.90;;;;;;5071628;28;20417;-58
2020/12/02 12:17:05;;;;;;;6.57;4.20;;;6.40;99.90;;;;;;5070184;28;20418;-57
2020/12/02 12:19:54;;;;;;;4.80;4.40;;;6.40;99.90;;;;;;5071941;28;20408;-57
2020/12/02 12:22:42;;;;;;;5.63;5.23;;;6.40;99.90;;;;;;5071690;28;20475;-57
2020/12/02 12:25:14;;;;;;;4.70;4.30;;;6.40;99.90;;;;;;5071682;28;20396;-54
2020/12/02 12:27:44;;;;;;;5.80;5.33;;;6.50;99.90;;;;;;5071493;28;20450;-57
2020/12/02 12:30:10;;;;;;;6.67;5.47;;;6.40;99.90;;;;;;5071596;28;20433;-57
2020/12/02 12:33:03;;;;;;;6.30;5.03;;;6.40;99.90;;;;;;5071764;28;20453;-57
2020/12/02 12:35:35;;;;;;;7.40;6.20;;;6.40;99.90;;;;;;5071552;28;20394;-57
2020/12/02 12:38:24;;;;;;;7.50;6.37;;;6.50;99.90;;;;;;5071598;28;20391;-58
2020/12/02 12:40:58;;;;;;;7.13;5.90;;;6.50;99.90;;;;;;5071599;28;20443;-57
2020/12/02 12:43:27;;;;;;;7.47;6.20;;;6.40;99.90;;;;;;5071690;28;20474;-57
2020/12/02 12:46:00;;;;;;;6.50;5.90;;;6.40;99.90;;;;;;5071387;28;20492;-56
2020/12/02 12:48:25;;;;;;;8.50;6.30;;;6.40;99.90;;;;;;5071419;28;20397;-58
2020/12/02 12:50:52;;;;;;;7.23;5.70;;;6.40;99.90;;;;;;5071437;28;20409;-57
2020/12/02 12:53:19;;;;;;;5.93;5.43;;;6.40;99.90;;;;;;5072765;28;20194;-57
2020/12/02 12:55:45;;;;;;;6.47;5.40;;;6.40;99.90;;;;;;5075203;28;20915;-57
2020/12/02 12:58:17;;;;;;;7.90;5.67;;;6.40;99.90;;;;;;5073790;28;20434;-58
2020/12/02 13:00:45;;;;;;;7.93;6.13;;;6.40;99.90;;;;;;5075227;28;20464;-58
2020/12/02 13:03:19;;;;;;;7.57;6.87;;;6.40;99.90;;;;;;5075524;28;20417;-58
2020/12/02 13:05:50;;;;;;;9.93;7.37;;;6.40;99.90;;;;;;5075250;28;20408;-58
2020/12/02 13:08:24;;;;;;;10.00;7.70;;;6.40;99.90;;;;;;5074782;28;20401;-58
2020/12/02 13:11:07;;;;;;;36.17;9.47;;;6.40;99.90;;;;;;5075223;28;20950;-57
2020/12/02 13:13:41;;;;;;;7.30;6.40;;;6.50;99.90;;;;;;5075013;28;20512;-56
2020/12/02 13:16:15;;;;;;;10.57;7.50;;;6.30;99.90;;;;;;5075140;28;20392;-54
2020/12/02 13:18:40;;;;;;;8.23;6.33;;;6.30;99.90;;;;;;5074719;28;20412;-56
2020/12/02 13:21:29;;;;;;;9.00;7.83;;;6.30;99.90;;;;;;5074791;28;20449;-57
2020/12/02 13:24:21;;;;;;;7.27;6.57;;;6.30;99.90;;;;;;5074506;28;20564;-58
2020/12/02 13:26:53;;;;;;;6.63;5.90;;;6.40;99.90;;;;;;5074269;28;20410;-57
2020/12/02 13:29:47;;;;;;;9.37;6.93;;;6.40;99.90;;;;;;5074237;28;20502;-57